nws-alerts: Checking more than four warning/county codes can delay the loading of your pages. You should use a cron job to get the data.
EllijayWeather Station Historical Data
 
Daily Summary for October 23, 2019 Units:  English    Metric   Both
Daily Weekly Monthly Yearly Custom
  Current: High: Low: Average:
Temperature: 38.7 °F 44.6 °F 38.7 °F 41.4 °F
Dew Point: 37.4 °F 42.4 °F 37.4 °F 39.8 °F
Humidity: 95% 95% 92% 94%
Wind Speed: 0mph 0mph 0mph 0mph
Wind Gust: 0mph 0mph - -
WindCalm - - North
Pressure: 30.14 in 30.14 in 30.10 in -
Precipitation: 0 in      
Historical Graphs
 
 
Tabular Data for October 23, 2019
Time Temperature Dew Point Pressure Wind Wind Speed Wind Gust Humidity Rainfall Rate (Hourly) solar
00:00 44.6 °F 42.4 °F 30.10 in Calm     92% 0 in meteobridge W/m2
00:05 44.4 °F 42.3 °F 30.10 in Calm     92% 0 in meteobridge W/m2
00:10 44.4 °F 42.3 °F 30.10 in Calm     92% 0 in meteobridge W/m2
00:15 44.1 °F 41.9 °F 30.10 in Calm     92% 0 in meteobridge W/m2
00:20 44.1 °F 41.9 °F 30.10 in Calm     92% 0 in meteobridge W/m2
00:25 43.9 °F 41.7 °F 30.10 in Calm     92% 0 in meteobridge W/m2
00:30 43.5 °F 41.7 °F 30.10 in Calm     93% 0 in meteobridge W/m2
00:35 43.5 °F 41.7 °F 30.11 in Calm     93% 0 in meteobridge W/m2
00:40 43.5 °F 41.7 °F 30.10 in Calm     93% 0 in meteobridge W/m2
00:45 43.3 °F 41.5 °F 30.11 in Calm     93% 0 in meteobridge W/m2
00:50 43.2 °F 41.4 °F 30.11 in Calm     93% 0 in meteobridge W/m2
00:55 43 °F 41.2 °F 30.11 in Calm     93% 0 in meteobridge W/m2
01:00 43 °F 41.2 °F 30.11 in Calm     93% 0 in meteobridge W/m2
01:05 42.6 °F 40.8 °F 30.11 in Calm     93% 0 in meteobridge W/m2
01:10 42.6 °F 40.8 °F 30.11 in Calm     93% 0 in meteobridge W/m2
01:15 42.4 °F 40.8 °F 30.11 in Calm     94% 0 in meteobridge W/m2
01:20 42.4 °F 40.8 °F 30.11 in Calm     94% 0 in meteobridge W/m2
01:25 42.3 °F 40.6 °F 30.11 in Calm     94% 0 in meteobridge W/m2
01:30 42.3 °F 40.5 °F 30.11 in Calm     93% 0 in meteobridge W/m2
01:35 42.1 °F 40.5 °F 30.11 in Calm     94% 0 in meteobridge W/m2
01:40 41.9 °F 40.1 °F 30.11 in Calm     93% 0 in meteobridge W/m2
01:45 41.7 °F 40.1 °F 30.11 in Calm     94% 0 in meteobridge W/m2
01:50 41.5 °F 39.7 °F 30.11 in Calm     93% 0 in meteobridge W/m2
01:55 41.5 °F 39.9 °F 30.11 in Calm     94% 0 in meteobridge W/m2
02:00 41.4 °F 39.7 °F 30.11 in Calm     94% 0 in meteobridge W/m2
02:05 41.2 °F 39.6 °F 30.11 in Calm     94% 0 in meteobridge W/m2
02:10 41.2 °F 39.6 °F 30.12 in Calm     94% 0 in meteobridge W/m2
02:15 41 °F 39.4 °F 30.12 in Calm     94% 0 in meteobridge W/m2
02:20 40.8 °F 39.2 °F 30.12 in Calm     94% 0 in meteobridge W/m2
02:25 40.6 °F 39 °F 30.13 in Calm     94% 0 in meteobridge W/m2
02:30 40.6 °F 39 °F 30.13 in Calm     94% 0 in meteobridge W/m2
02:35 40.5 °F 38.8 °F 30.13 in Calm     94% 0 in meteobridge W/m2
02:40 40.3 °F 38.7 °F 30.13 in Calm     94% 0 in meteobridge W/m2
02:45 40.3 °F 38.7 °F 30.13 in Calm     94% 0 in meteobridge W/m2
02:50 40.3 °F 38.7 °F 30.13 in Calm     94% 0 in meteobridge W/m2
02:55 40.1 °F 38.5 °F 30.13 in Calm     94% 0 in meteobridge W/m2
03:00 39.9 °F 38.3 °F 30.13 in Calm     94% 0 in meteobridge W/m2
03:05 39.7 °F 38.1 °F 30.13 in Calm     94% 0 in meteobridge W/m2
03:10 39.7 °F 38.1 °F 30.13 in Calm     94% 0 in meteobridge W/m2
03:15 39.6 °F 37.9 °F 30.14 in Calm     94% 0 in meteobridge W/m2
03:20 39.4 °F 37.8 °F 30.14 in Calm     94% 0 in meteobridge W/m2
03:25 39.4 °F 38.1 °F 30.14 in Calm     95% 0 in meteobridge W/m2
03:30 39.4 °F 38.1 °F 30.14 in Calm     95% 0 in meteobridge W/m2
03:35 39.2 °F 37.9 °F 30.14 in Calm     95% 0 in meteobridge W/m2
03:40 39 °F 37.4 °F 30.14 in Calm     94% 0 in meteobridge W/m2
03:45 38.8 °F 37.6 °F 30.14 in Calm     95% 0 in meteobridge W/m2
03:50 38.8 °F 37.6 °F 30.14 in Calm     95% 0 in meteobridge W/m2
03:55 38.8 °F 37.6 °F 30.14 in Calm     95% 0 in meteobridge W/m2
04:00 38.7 °F 37.4 °F 30.14 in Calm     95% 0 in meteobridge W/m2
EllijayWeather
Compliments of Weather Underground - 1.5 mb